sensor_id;sensor_type;location;lat;lon;timestamp;temperature;humidity
71514;DHT22;59335;46.652;21.272;2023-03-21T00:01:27;22.72;34.49
71514;DHT22;59335;46.652;21.272;2023-03-21T00:04:30;22.74;34.53
71514;DHT22;59335;46.652;21.272;2023-03-21T00:07:52;22.72;34.54
71514;DHT22;59335;46.652;21.272;2023-03-21T00:11:00;22.72;34.51
71514;DHT22;59335;46.652;21.272;2023-03-21T00:14:03;22.69;34.51
71514;DHT22;59335;46.652;21.272;2023-03-21T00:17:10;22.71;34.47
71514;DHT22;59335;46.652;21.272;2023-03-21T00:20:13;22.72;34.44
71514;DHT22;59335;46.652;21.272;2023-03-21T00:23:19;22.74;34.43
71514;DHT22;59335;46.652;21.272;2023-03-21T00:26:21;22.72;34.42
71514;DHT22;59335;46.652;21.272;2023-03-21T00:29:24;22.71;34.34
71514;DHT22;59335;46.652;21.272;2023-03-21T00:32:27;22.71;34.37
71514;DHT22;59335;46.652;21.272;2023-03-21T00:35:30;22.68;34.29
71514;DHT22;59335;46.652;21.272;2023-03-21T00:38:53;22.69;34.24
71514;DHT22;59335;46.652;21.272;2023-03-21T00:41:56;22.69;34.16
71514;DHT22;59335;46.652;21.272;2023-03-21T00:44:59;22.68;34.15
71514;DHT22;59335;46.652;21.272;2023-03-21T00:48:04;22.69;34.09
71514;DHT22;59335;46.652;21.272;2023-03-21T00:51:13;22.67;34.02
71514;DHT22;59335;46.652;21.272;2023-03-21T00:54:16;22.67;33.98
71514;DHT22;59335;46.652;21.272;2023-03-21T00:57:19;22.65;33.91
71514;DHT22;59335;46.652;21.272;2023-03-21T01:00:37;22.63;33.92
71514;DHT22;59335;46.652;21.272;2023-03-21T01:03:41;22.67;33.88
71514;DHT22;59335;46.652;21.272;2023-03-21T01:06:49;22.63;33.86
71514;DHT22;59335;46.652;21.272;2023-03-21T01:09:52;22.64;33.81
71514;DHT22;59335;46.652;21.272;2023-03-21T01:12:55;22.65;33.79
71514;DHT22;59335;46.652;21.272;2023-03-21T01:15:59;22.65;33.72
71514;DHT22;59335;46.652;21.272;2023-03-21T01:19:03;22.63;33.65
71514;DHT22;59335;46.652;21.272;2023-03-21T01:22:16;22.64;33.62
71514;DHT22;59335;46.652;21.272;2023-03-21T01:25:18;22.61;33.56
71514;DHT22;59335;46.652;21.272;2023-03-21T01:28:26;22.63;33.61
71514;DHT22;59335;46.652;21.272;2023-03-21T01:31:30;22.64;33.50
71514;DHT22;59335;46.652;21.272;2023-03-21T01:34:33;22.64;33.47
71514;DHT22;59335;46.652;21.272;2023-03-21T01:37:35;22.63;33.47
71514;DHT22;59335;46.652;21.272;2023-03-21T01:40:39;22.61;33.47
71514;DHT22;59335;46.652;21.272;2023-03-21T01:43:52;22.61;33.42
71514;DHT22;59335;46.652;21.272;2023-03-21T01:47:01;22.58;33.35
71514;DHT22;59335;46.652;21.272;2023-03-21T01:50:13;22.58;33.30
71514;DHT22;59335;46.652;21.272;2023-03-21T01:53:25;22.60;33.33
71514;DHT22;59335;46.652;21.272;2023-03-21T01:56:33;22.57;33.19
71514;DHT22;59335;46.652;21.272;2023-03-21T01:59:49;22.57;33.19
71514;DHT22;59335;46.652;21.272;2023-03-21T02:03:13;22.54;33.15
71514;DHT22;59335;46.652;21.272;2023-03-21T02:06:58;22.54;33.16
71514;DHT22;59335;46.652;21.272;2023-03-21T02:10:15;22.55;33.07
71514;DHT22;59335;46.652;21.272;2023-03-21T02:13:22;22.54;33.05
71514;DHT22;59335;46.652;21.272;2023-03-21T02:16:37;22.57;33.01
71514;DHT22;59335;46.652;21.272;2023-03-21T02:33:30;22.51;32.85
71514;DHT22;59335;46.652;21.272;2023-03-21T02:37:01;22.53;32.84
71514;DHT22;59335;46.652;21.272;2023-03-21T02:40:31;22.50;32.82
71514;DHT22;59335;46.652;21.272;2023-03-21T02:44:05;22.47;32.72
71514;DHT22;59335;46.652;21.272;2023-03-21T02:47:13;22.46;32.69
71514;DHT22;59335;46.652;21.272;2023-03-21T02:50:33;22.48;32.67
71514;DHT22;59335;46.652;21.272;2023-03-21T02:53:40;22.50;32.62
71514;DHT22;59335;46.652;21.272;2023-03-21T02:56:46;22.47;32.58
71514;DHT22;59335;46.652;21.272;2023-03-21T02:59:51;22.47;32.53
71514;DHT22;59335;46.652;21.272;2023-03-21T03:03:08;22.46;32.53
71514;DHT22;59335;46.652;21.272;2023-03-21T03:06:48;22.46;32.46
71514;DHT22;59335;46.652;21.272;2023-03-21T03:09:58;22.44;32.40
71514;DHT22;59335;46.652;21.272;2023-03-21T03:16:52;22.44;32.38
71514;DHT22;59335;46.652;21.272;2023-03-21T03:23:33;22.43;32.31
71514;DHT22;59335;46.652;21.272;2023-03-21T03:26:42;22.41;32.30
71514;DHT22;59335;46.652;21.272;2023-03-21T03:29:47;22.40;32.25
71514;DHT22;59335;46.652;21.272;2023-03-21T03:32:58;22.43;32.25
71514;DHT22;59335;46.652;21.272;2023-03-21T03:36:04;22.39;32.30
71514;DHT22;59335;46.652;21.272;2023-03-21T03:39:12;22.41;32.25
71514;DHT22;59335;46.652;21.272;2023-03-21T03:42:28;22.39;32.29
71514;DHT22;59335;46.652;21.272;2023-03-21T03:45:42;22.39;32.25
71514;DHT22;59335;46.652;21.272;2023-03-21T03:48:52;22.36;32.26
71514;DHT22;59335;46.652;21.272;2023-03-21T03:52:18;22.37;32.25
71514;DHT22;59335;46.652;21.272;2023-03-21T03:55:30;22.39;32.28
71514;DHT22;59335;46.652;21.272;2023-03-21T03:58:47;22.37;32.19
71514;DHT22;59335;46.652;21.272;2023-03-21T04:01:53;22.34;32.23
71514;DHT22;59335;46.652;21.272;2023-03-21T04:04:56;22.36;32.25
71514;DHT22;59335;46.652;21.272;2023-03-21T04:07:59;22.34;32.20
71514;DHT22;59335;46.652;21.272;2023-03-21T04:11:13;22.33;32.24
71514;DHT22;59335;46.652;21.272;2023-03-21T04:14:21;22.33;32.22
71514;DHT22;59335;46.652;21.272;2023-03-21T04:17:24;22.36;32.17
71514;DHT22;59335;46.652;21.272;2023-03-21T04:20:27;22.36;32.21
71514;DHT22;59335;46.652;21.272;2023-03-21T04:23:45;22.34;32.21
71514;DHT22;59335;46.652;21.272;2023-03-21T04:26:48;22.33;32.23
71514;DHT22;59335;46.652;21.272;2023-03-21T04:30:29;22.33;32.23
71514;DHT22;59335;46.652;21.272;2023-03-21T04:33:43;22.32;32.21
71514;DHT22;59335;46.652;21.272;2023-03-21T04:36:46;22.32;32.21
71514;DHT22;59335;46.652;21.272;2023-03-21T04:39:50;22.30;32.24
71514;DHT22;59335;46.652;21.272;2023-03-21T04:42:53;22.30;32.20
71514;DHT22;59335;46.652;21.272;2023-03-21T04:45:55;22.30;32.15
71514;DHT22;59335;46.652;21.272;2023-03-21T04:48:58;22.30;32.14
71514;DHT22;59335;46.652;21.272;2023-03-21T04:52:02;22.29;32.14
71514;DHT22;59335;46.652;21.272;2023-03-21T04:55:05;22.30;32.18
71514;DHT22;59335;46.652;21.272;2023-03-21T04:58:13;22.30;32.17
71514;DHT22;59335;46.652;21.272;2023-03-21T05:01:16;22.32;32.15
71514;DHT22;59335;46.652;21.272;2023-03-21T05:04:22;22.29;32.12
71514;DHT22;59335;46.652;21.272;2023-03-21T05:07:25;22.27;32.20
71514;DHT22;59335;46.652;21.272;2023-03-21T05:10:29;22.32;32.15
71514;DHT22;59335;46.652;21.272;2023-03-21T05:13:32;22.32;32.15
71514;DHT22;59335;46.652;21.272;2023-03-21T05:16:35;22.34;32.16
71514;DHT22;59335;46.652;21.272;2023-03-21T05:19:40;22.37;32.16
71514;DHT22;59335;46.652;21.272;2023-03-21T05:22:45;22.39;32.12
71514;DHT22;59335;46.652;21.272;2023-03-21T05:25:51;22.43;32.09
71514;DHT22;59335;46.652;21.272;2023-03-21T05:29:18;22.46;32.06
71514;DHT22;59335;46.652;21.272;2023-03-21T05:32:35;22.47;32.06
71514;DHT22;59335;46.652;21.272;2023-03-21T05:35:44;22.47;32.05
71514;DHT22;59335;46.652;21.272;2023-03-21T05:38:48;22.37;32.01
71514;DHT22;59335;46.652;21.272;2023-03-21T05:41:51;22.19;31.96
71514;DHT22;59335;46.652;21.272;2023-03-21T05:44:54;22.07;32.10
71514;DHT22;59335;46.652;21.272;2023-03-21T05:48:02;21.93;32.21
71514;DHT22;59335;46.652;21.272;2023-03-21T05:51:11;21.90;32.32
71514;DHT22;59335;46.652;21.272;2023-03-21T05:54:14;21.89;32.41
71514;DHT22;59335;46.652;21.272;2023-03-21T05:57:21;21.90;32.47
71514;DHT22;59335;46.652;21.272;2023-03-21T06:00:37;21.81;32.53
71514;DHT22;59335;46.652;21.272;2023-03-21T06:04:00;21.83;32.54
71514;DHT22;59335;46.652;21.272;2023-03-21T06:07:04;21.79;32.64
71514;DHT22;59335;46.652;21.272;2023-03-21T06:10:07;21.77;32.82
71514;DHT22;59335;46.652;21.272;2023-03-21T06:13:11;21.77;32.97
71514;DHT22;59335;46.652;21.272;2023-03-21T06:16:15;21.74;33.06
71514;DHT22;59335;46.652;21.272;2023-03-21T06:19:19;21.78;33.14
71514;DHT22;59335;46.652;21.272;2023-03-21T06:22:38;21.93;33.27
71514;DHT22;59335;46.652;21.272;2023-03-21T06:25:41;22.05;33.11
71514;DHT22;59335;46.652;21.272;2023-03-21T06:28:44;22.16;33.25
71514;DHT22;59335;46.652;21.272;2023-03-21T06:31:46;22.26;33.39
71514;DHT22;59335;46.652;21.272;2023-03-21T06:34:50;22.33;33.37
71514;DHT22;59335;46.652;21.272;2023-03-21T06:37:53;22.40;33.60
71514;DHT22;59335;46.652;21.272;2023-03-21T06:40:56;22.46;34.05
71514;DHT22;59335;46.652;21.272;2023-03-21T06:44:03;22.51;33.65
71514;DHT22;59335;46.652;21.272;2023-03-21T06:47:22;22.58;34.23
71514;DHT22;59335;46.652;21.272;2023-03-21T06:50:25;22.64;34.40
71514;DHT22;59335;46.652;21.272;2023-03-21T06:53:29;22.68;34.48
71514;DHT22;59335;46.652;21.272;2023-03-21T06:56:53;22.68;34.48
71514;DHT22;59335;46.652;21.272;2023-03-21T07:00:01;22.74;34.83
71514;DHT22;59335;46.652;21.272;2023-03-21T07:03:04;22.76;34.95
71514;DHT22;59335;46.652;21.272;2023-03-21T07:06:10;22.82;34.99
71514;DHT22;59335;46.652;21.272;2023-03-21T07:09:16;22.85;34.65
71514;DHT22;59335;46.652;21.272;2023-03-21T07:12:21;22.91;34.77
71514;DHT22;59335;46.652;21.272;2023-03-21T07:15:42;22.98;35.00
71514;DHT22;59335;46.652;21.272;2023-03-21T07:18:45;23.03;35.10
71514;DHT22;59335;46.652;21.272;2023-03-21T07:21:52;23.11;35.01
71514;DHT22;59335;46.652;21.272;2023-03-21T07:24:54;23.13;34.99
71514;DHT22;59335;46.652;21.272;2023-03-21T07:28:12;23.20;34.86
71514;DHT22;59335;46.652;21.272;2023-03-21T07:31:17;23.26;34.81
71514;DHT22;59335;46.652;21.272;2023-03-21T07:34:23;23.34;34.71
71514;DHT22;59335;46.652;21.272;2023-03-21T07:37:39;23.34;34.57
71514;DHT22;59335;46.652;21.272;2023-03-21T07:40:43;23.38;34.49
71514;DHT22;59335;46.652;21.272;2023-03-21T07:43:47;23.30;33.78
71514;DHT22;59335;46.652;21.272;2023-03-21T07:46:50;23.20;33.81
71514;DHT22;59335;46.652;21.272;2023-03-21T07:49:54;23.15;34.36
71514;DHT22;59335;46.652;21.272;2023-03-21T07:52:56;23.13;34.55
71514;DHT22;59335;46.652;21.272;2023-03-21T07:55:59;23.06;34.38
71514;DHT22;59335;46.652;21.272;2023-03-21T07:59:02;23.02;34.74
71514;DHT22;59335;46.652;21.272;2023-03-21T08:02:14;23.05;35.14
71514;DHT22;59335;46.652;21.272;2023-03-21T08:05:42;22.00;36.27
71514;DHT22;59335;46.652;21.272;2023-03-21T08:08:51;22.23;35.96
71514;DHT22;59335;46.652;21.272;2023-03-21T08:12:09;22.63;35.47
71514;DHT22;59335;46.652;21.272;2023-03-21T08:15:13;22.85;35.19
71514;DHT22;59335;46.652;21.272;2023-03-21T08:18:15;22.98;34.89
71514;DHT22;59335;46.652;21.272;2023-03-21T08:21:18;23.02;34.72
71514;DHT22;59335;46.652;21.272;2023-03-21T08:24:21;22.84;34.68
71514;DHT22;59335;46.652;21.272;2023-03-21T08:27:23;22.63;34.67
71514;DHT22;59335;46.652;21.272;2023-03-21T08:30:27;22.58;34.89
71514;DHT22;59335;46.652;21.272;2023-03-21T08:33:30;22.82;34.83
71514;DHT22;59335;46.652;21.272;2023-03-21T08:36:35;22.96;34.71
71514;DHT22;59335;46.652;21.272;2023-03-21T08:39:38;23.12;34.51
71514;DHT22;59335;46.652;21.272;2023-03-21T08:43:27;23.24;34.41
71514;DHT22;59335;46.652;21.272;2023-03-21T08:46:44;23.38;34.25
71514;DHT22;59335;46.652;21.272;2023-03-21T08:49:47;23.38;34.59
71514;DHT22;59335;46.652;21.272;2023-03-21T08:52:50;23.45;34.48
71514;DHT22;59335;46.652;21.272;2023-03-21T08:55:52;23.47;34.70
71514;DHT22;59335;46.652;21.272;2023-03-21T08:58:55;23.39;35.72
71514;DHT22;59335;46.652;21.272;2023-03-21T09:02:00;23.40;35.30
71514;DHT22;59335;46.652;21.272;2023-03-21T09:05:03;23.40;35.69
71514;DHT22;59335;46.652;21.272;2023-03-21T09:08:08;23.42;35.51
71514;DHT22;59335;46.652;21.272;2023-03-21T09:11:11;23.50;35.48
71514;DHT22;59335;46.652;21.272;2023-03-21T09:14:15;23.53;35.43
71514;DHT22;59335;46.652;21.272;2023-03-21T09:17:25;23.60;35.42
71514;DHT22;59335;46.652;21.272;2023-03-21T09:20:29;23.60;35.35
71514;DHT22;59335;46.652;21.272;2023-03-21T09:23:35;23.64;35.26
71514;DHT22;59335;46.652;21.272;2023-03-21T09:27:18;23.60;35.29
71514;DHT22;59335;46.652;21.272;2023-03-21T09:30:39;23.60;35.22
71514;DHT22;59335;46.652;21.272;2023-03-21T09:33:44;23.66;35.20
71514;DHT22;59335;46.652;21.272;2023-03-21T09:36:47;23.63;35.16
71514;DHT22;59335;46.652;21.272;2023-03-21T09:39:50;23.64;35.20
71514;DHT22;59335;46.652;21.272;2023-03-21T09:43:34;23.60;35.03
71514;DHT22;59335;46.652;21.272;2023-03-21T09:50:05;23.63;35.42
71514;DHT22;59335;46.652;21.272;2023-03-21T09:53:34;23.59;35.35
71514;DHT22;59335;46.652;21.272;2023-03-21T09:56:42;23.49;35.55
71514;DHT22;59335;46.652;21.272;2023-03-21T09:59:49;23.47;35.63
71514;DHT22;59335;46.652;21.272;2023-03-21T10:02:59;23.42;35.77
71514;DHT22;59335;46.652;21.272;2023-03-21T10:06:11;23.43;36.20
71514;DHT22;59335;46.652;21.272;2023-03-21T10:09:21;23.45;36.18
71514;DHT22;59335;46.652;21.272;2023-03-21T10:12:26;23.47;36.35
71514;DHT22;59335;46.652;21.272;2023-03-21T10:15:34;23.49;36.24
71514;DHT22;59335;46.652;21.272;2023-03-21T10:18:42;23.38;36.39
71514;DHT22;59335;46.652;21.272;2023-03-21T10:21:49;23.38;36.56
71514;DHT22;59335;46.652;21.272;2023-03-21T10:25:15;23.38;36.49
71514;DHT22;59335;46.652;21.272;2023-03-21T10:28:21;23.38;36.53
71514;DHT22;59335;46.652;21.272;2023-03-21T10:31:28;23.40;36.54
71514;DHT22;59335;46.652;21.272;2023-03-21T10:34:41;23.42;36.45
71514;DHT22;59335;46.652;21.272;2023-03-21T10:37:46;23.47;36.42
71514;DHT22;59335;46.652;21.272;2023-03-21T10:40:49;23.51;36.39
71514;DHT22;59335;46.652;21.272;2023-03-21T10:44:10;23.53;36.57
71514;DHT22;59335;46.652;21.272;2023-03-21T10:47:19;23.56;36.78
71514;DHT22;59335;46.652;21.272;2023-03-21T10:50:32;23.53;36.80
71514;DHT22;59335;46.652;21.272;2023-03-21T10:53:45;23.57;36.71
71514;DHT22;59335;46.652;21.272;2023-03-21T11:00:07;23.64;37.15
71514;DHT22;59335;46.652;21.272;2023-03-21T11:03:25;23.73;37.91
71514;DHT22;59335;46.652;21.272;2023-03-21T11:06:31;23.70;37.65
71514;DHT22;59335;46.652;21.272;2023-03-21T11:09:56;23.71;37.55
71514;DHT22;59335;46.652;21.272;2023-03-21T11:13:16;23.71;37.56
71514;DHT22;59335;46.652;21.272;2023-03-21T11:16:34;23.71;37.45
71514;DHT22;59335;46.652;21.272;2023-03-21T11:19:39;23.71;38.02
71514;DHT22;59335;46.652;21.272;2023-03-21T11:22:44;23.71;37.61
71514;DHT22;59335;46.652;21.272;2023-03-21T11:25:49;23.70;37.70
71514;DHT22;59335;46.652;21.272;2023-03-21T11:28:52;23.69;37.90
71514;DHT22;59335;46.652;21.272;2023-03-21T11:32:08;23.70;37.94
71514;DHT22;59335;46.652;21.272;2023-03-21T11:35:18;23.69;37.97
71514;DHT22;59335;46.652;21.272;2023-03-21T11:38:25;23.70;37.86
71514;DHT22;59335;46.652;21.272;2023-03-21T11:41:33;23.69;37.88
71514;DHT22;59335;46.652;21.272;2023-03-21T11:44:42;23.69;38.00
71514;DHT22;59335;46.652;21.272;2023-03-21T11:47:48;23.71;37.94
71514;DHT22;59335;46.652;21.272;2023-03-21T11:50:58;23.74;37.98
71514;DHT22;59335;46.652;21.272;2023-03-21T11:57:52;23.80;38.26
71514;DHT22;59335;46.652;21.272;2023-03-21T12:01:18;23.84;38.43
71514;DHT22;59335;46.652;21.272;2023-03-21T12:08:21;23.82;38.27
71514;DHT22;59335;46.652;21.272;2023-03-21T12:11:51;23.82;38.19
71514;DHT22;59335;46.652;21.272;2023-03-21T12:31:56;23.74;38.26
71514;DHT22;59335;46.652;21.272;2023-03-21T12:35:26;23.74;38.18
71514;DHT22;59335;46.652;21.272;2023-03-21T12:38:43;23.73;38.24
71514;DHT22;59335;46.652;21.272;2023-03-21T12:42:26;23.71;38.21
71514;DHT22;59335;46.652;21.272;2023-03-21T12:45:37;23.67;38.25
71514;DHT22;59335;46.652;21.272;2023-03-21T12:48:55;23.70;38.25
71514;DHT22;59335;46.652;21.272;2023-03-21T12:52:11;23.81;38.37
71514;DHT22;59335;46.652;21.272;2023-03-21T12:55:32;23.74;38.16
71514;DHT22;59335;46.652;21.272;2023-03-21T12:58:46;23.74;38.05
71514;DHT22;59335;46.652;21.272;2023-03-21T13:01:55;23.66;38.04
71514;DHT22;59335;46.652;21.272;2023-03-21T13:05:19;23.67;38.12
71514;DHT22;59335;46.652;21.272;2023-03-21T13:11:32;23.64;37.93
71514;DHT22;59335;46.652;21.272;2023-03-21T13:14:44;23.61;37.74
71514;DHT22;59335;46.652;21.272;2023-03-21T13:24:33;23.63;37.40
71514;DHT22;59335;46.652;21.272;2023-03-21T13:27:40;23.64;37.32
71514;DHT22;59335;46.652;21.272;2023-03-21T13:30:43;23.63;37.15
71514;DHT22;59335;46.652;21.272;2023-03-21T13:33:49;23.60;37.20
71514;DHT22;59335;46.652;21.272;2023-03-21T13:36:55;23.61;37.08
71514;DHT22;59335;46.652;21.272;2023-03-21T13:40:00;23.60;37.01
71514;DHT22;59335;46.652;21.272;2023-03-21T13:43:03;23.60;37.02
71514;DHT22;59335;46.652;21.272;2023-03-21T13:46:14;23.60;36.89
71514;DHT22;59335;46.652;21.272;2023-03-21T13:50:13;23.63;36.80
71514;DHT22;59335;46.652;21.272;2023-03-21T13:53:21;23.63;36.83
71514;DHT22;59335;46.652;21.272;2023-03-21T13:56:23;23.64;36.89
71514;DHT22;59335;46.652;21.272;2023-03-21T13:59:43;23.63;36.78
71514;DHT22;59335;46.652;21.272;2023-03-21T14:02:54;23.60;36.84
71514;DHT22;59335;46.652;21.272;2023-03-21T14:05:58;23.59;36.89
71514;DHT22;59335;46.652;21.272;2023-03-21T14:09:03;23.63;36.86
71514;DHT22;59335;46.652;21.272;2023-03-21T14:12:12;23.57;36.79
71514;DHT22;59335;46.652;21.272;2023-03-21T14:15:21;23.54;36.81
71514;DHT22;59335;46.652;21.272;2023-03-21T14:18:26;23.56;36.83
71514;DHT22;59335;46.652;21.272;2023-03-21T14:21:50;23.57;37.07
71514;DHT22;59335;46.652;21.272;2023-03-21T14:25:00;23.56;36.83
71514;DHT22;59335;46.652;21.272;2023-03-21T14:28:07;23.56;36.99
71514;DHT22;59335;46.652;21.272;2023-03-21T14:31:17;23.56;36.95
71514;DHT22;59335;46.652;21.272;2023-03-21T14:34:21;23.54;37.03
71514;DHT22;59335;46.652;21.272;2023-03-21T14:37:30;23.51;37.06
71514;DHT22;59335;46.652;21.272;2023-03-21T14:40:34;23.53;37.01
71514;DHT22;59335;46.652;21.272;2023-03-21T14:43:37;23.50;36.97
71514;DHT22;59335;46.652;21.272;2023-03-21T14:46:43;23.53;36.90
71514;DHT22;59335;46.652;21.272;2023-03-21T14:49:48;23.51;36.87
71514;DHT22;59335;46.652;21.272;2023-03-21T14:52:53;23.57;36.80
71514;DHT22;59335;46.652;21.272;2023-03-21T14:59:31;23.53;36.87
71514;DHT22;59335;46.652;21.272;2023-03-21T15:02:37;23.50;36.80
71514;DHT22;59335;46.652;21.272;2023-03-21T15:05:41;23.49;36.89
71514;DHT22;59335;46.652;21.272;2023-03-21T15:11:58;23.49;36.85
71514;DHT22;59335;46.652;21.272;2023-03-21T15:15:01;23.46;36.88
71514;DHT22;59335;46.652;21.272;2023-03-21T15:18:05;23.46;36.88
71514;DHT22;59335;46.652;21.272;2023-03-21T15:21:28;23.46;36.84
71514;DHT22;59335;46.652;21.272;2023-03-21T15:24:39;23.43;36.86
71514;DHT22;59335;46.652;21.272;2023-03-21T15:27:42;23.43;36.83
71514;DHT22;59335;46.652;21.272;2023-03-21T15:30:50;23.45;36.87
71514;DHT22;59335;46.652;21.272;2023-03-21T15:33:54;23.43;36.87
71514;DHT22;59335;46.652;21.272;2023-03-21T15:37:00;23.40;36.87
71514;DHT22;59335;46.652;21.272;2023-03-21T15:40:09;23.42;36.84
71514;DHT22;59335;46.652;21.272;2023-03-21T15:43:18;23.40;36.86
71514;DHT22;59335;46.652;21.272;2023-03-21T15:46:49;23.39;36.77
71514;DHT22;59335;46.652;21.272;2023-03-21T15:49:53;23.39;36.80
71514;DHT22;59335;46.652;21.272;2023-03-21T15:52:59;23.38;36.77
71514;DHT22;59335;46.652;21.272;2023-03-21T15:56:04;23.38;36.80
71514;DHT22;59335;46.652;21.272;2023-03-21T15:59:13;23.34;36.80
71514;DHT22;59335;46.652;21.272;2023-03-21T16:02:19;23.38;36.80
71514;DHT22;59335;46.652;21.272;2023-03-21T16:05:31;23.34;36.79
71514;DHT22;59335;46.652;21.272;2023-03-21T16:08:36;23.33;36.74
71514;DHT22;59335;46.652;21.272;2023-03-21T16:11:47;23.33;36.73
71514;DHT22;59335;46.652;21.272;2023-03-21T16:14:50;23.30;36.85
71514;DHT22;59335;46.652;21.272;2023-03-21T16:17:56;23.32;37.22
71514;DHT22;59335;46.652;21.272;2023-03-21T16:20:59;23.29;39.85
71514;DHT22;59335;46.652;21.272;2023-03-21T16:24:04;23.26;42.80
71514;DHT22;59335;46.652;21.272;2023-03-21T16:27:09;23.12;57.72
71514;DHT22;59335;46.652;21.272;2023-03-21T16:30:15;23.12;56.67
71514;DHT22;59335;46.652;21.272;2023-03-21T16:33:18;23.12;56.07
71514;DHT22;59335;46.652;21.272;2023-03-21T16:36:27;23.09;56.31
71514;DHT22;59335;46.652;21.272;2023-03-21T16:39:30;23.08;54.79
71514;DHT22;59335;46.652;21.272;2023-03-21T16:42:33;23.08;54.73
71514;DHT22;59335;46.652;21.272;2023-03-21T16:45:35;23.08;52.74
71514;DHT22;59335;46.652;21.272;2023-03-21T16:48:39;23.08;50.40
71514;DHT22;59335;46.652;21.272;2023-03-21T16:51:42;23.08;48.47
71514;DHT22;59335;46.652;21.272;2023-03-21T16:54:45;23.09;47.28
71514;DHT22;59335;46.652;21.272;2023-03-21T16:57:49;23.08;46.79
71514;DHT22;59335;46.652;21.272;2023-03-21T17:00:53;23.09;46.64
71514;DHT22;59335;46.652;21.272;2023-03-21T17:03:57;23.11;45.90
71514;DHT22;59335;46.652;21.272;2023-03-21T17:07:00;23.11;45.24
71514;DHT22;59335;46.652;21.272;2023-03-21T17:10:08;23.13;44.85
71514;DHT22;59335;46.652;21.272;2023-03-21T17:13:13;23.13;44.17
71514;DHT22;59335;46.652;21.272;2023-03-21T17:16:24;23.15;43.78
71514;DHT22;59335;46.652;21.272;2023-03-21T17:19:28;23.12;43.46
71514;DHT22;59335;46.652;21.272;2023-03-21T17:22:34;23.12;43.37
71514;DHT22;59335;46.652;21.272;2023-03-21T17:25:38;23.13;43.06
71514;DHT22;59335;46.652;21.272;2023-03-21T17:28:41;23.12;42.95
71514;DHT22;59335;46.652;21.272;2023-03-21T17:31:43;23.13;42.74
71514;DHT22;59335;46.652;21.272;2023-03-21T17:34:48;23.12;42.72
71514;DHT22;59335;46.652;21.272;2023-03-21T17:37:55;23.13;42.53
71514;DHT22;59335;46.652;21.272;2023-03-21T17:41:00;23.11;42.46
71514;DHT22;59335;46.652;21.272;2023-03-21T17:44:03;23.12;42.34
71514;DHT22;59335;46.652;21.272;2023-03-21T17:47:11;23.11;42.21
71514;DHT22;59335;46.652;21.272;2023-03-21T17:50:22;23.11;42.15
71514;DHT22;59335;46.652;21.272;2023-03-21T17:53:25;23.12;42.11
71514;DHT22;59335;46.652;21.272;2023-03-21T17:56:30;23.11;41.94
71514;DHT22;59335;46.652;21.272;2023-03-21T17:59:34;23.08;41.76
71514;DHT22;59335;46.652;21.272;2023-03-21T18:02:38;23.09;41.77
71514;DHT22;59335;46.652;21.272;2023-03-21T18:05:42;23.08;41.69
71514;DHT22;59335;46.652;21.272;2023-03-21T18:08:47;23.05;41.76
71514;DHT22;59335;46.652;21.272;2023-03-21T18:11:50;23.08;41.62
71514;DHT22;59335;46.652;21.272;2023-03-21T18:14:53;23.08;41.59
71514;DHT22;59335;46.652;21.272;2023-03-21T18:17:57;23.06;41.46
71514;DHT22;59335;46.652;21.272;2023-03-21T18:21:01;23.06;41.40
71514;DHT22;59335;46.652;21.272;2023-03-21T18:24:05;23.06;41.31
71514;DHT22;59335;46.652;21.272;2023-03-21T18:27:08;23.03;41.29
71514;DHT22;59335;46.652;21.272;2023-03-21T18:30:18;23.05;41.21
71514;DHT22;59335;46.652;21.272;2023-03-21T18:33:42;23.05;41.11
71514;DHT22;59335;46.652;21.272;2023-03-21T18:36:47;23.03;41.01
71514;DHT22;59335;46.652;21.272;2023-03-21T18:39:51;23.03;41.00
71514;DHT22;59335;46.652;21.272;2023-03-21T18:42:54;23.02;40.79
71514;DHT22;59335;46.652;21.272;2023-03-21T18:46:19;23.05;40.87
71514;DHT22;59335;46.652;21.272;2023-03-21T18:49:23;23.03;40.82
71514;DHT22;59335;46.652;21.272;2023-03-21T18:52:52;23.02;40.70
71514;DHT22;59335;46.652;21.272;2023-03-21T18:55:56;23.05;40.66
71514;DHT22;59335;46.652;21.272;2023-03-21T18:59:01;23.03;40.53
71514;DHT22;59335;46.652;21.272;2023-03-21T19:02:06;23.01;40.46
71514;DHT22;59335;46.652;21.272;2023-03-21T19:05:13;23.01;40.41
71514;DHT22;59335;46.652;21.272;2023-03-21T19:08:21;23.03;40.35
71514;DHT22;59335;46.652;21.272;2023-03-21T19:11:25;23.02;40.25
71514;DHT22;59335;46.652;21.272;2023-03-21T19:14:32;23.03;40.24
71514;DHT22;59335;46.652;21.272;2023-03-21T19:17:43;23.02;40.13
71514;DHT22;59335;46.652;21.272;2023-03-21T19:21:07;23.02;40.04
71514;DHT22;59335;46.652;21.272;2023-03-21T19:24:15;23.02;40.00
71514;DHT22;59335;46.652;21.272;2023-03-21T19:27:30;23.02;39.97
71514;DHT22;59335;46.652;21.272;2023-03-21T19:30:35;22.99;39.96
71514;DHT22;59335;46.652;21.272;2023-03-21T19:33:39;23.03;39.86
71514;DHT22;59335;46.652;21.272;2023-03-21T19:36:43;23.02;39.83
71514;DHT22;59335;46.652;21.272;2023-03-21T19:39:53;23.03;39.71
71514;DHT22;59335;46.652;21.272;2023-03-21T19:42:56;23.02;39.62
71514;DHT22;59335;46.652;21.272;2023-03-21T19:46:23;23.03;39.68
71514;DHT22;59335;46.652;21.272;2023-03-21T19:49:27;23.03;39.54
71514;DHT22;59335;46.652;21.272;2023-03-21T19:52:51;23.02;39.55
71514;DHT22;59335;46.652;21.272;2023-03-21T19:55:55;23.03;39.48
71514;DHT22;59335;46.652;21.272;2023-03-21T19:59:05;23.03;39.44
71514;DHT22;59335;46.652;21.272;2023-03-21T20:02:11;23.05;39.37
71514;DHT22;59335;46.652;21.272;2023-03-21T20:05:35;23.03;39.29
71514;DHT22;59335;46.652;21.272;2023-03-21T20:08:39;23.05;39.29
71514;DHT22;59335;46.652;21.272;2023-03-21T20:12:03;23.03;39.25
71514;DHT22;59335;46.652;21.272;2023-03-21T20:15:08;23.03;39.16
71514;DHT22;59335;46.652;21.272;2023-03-21T20:18:22;23.03;39.12
71514;DHT22;59335;46.652;21.272;2023-03-21T20:21:26;23.03;39.20
71514;DHT22;59335;46.652;21.272;2023-03-21T20:24:38;23.02;39.04
71514;DHT22;59335;46.652;21.272;2023-03-21T20:27:45;23.02;38.99
71514;DHT22;59335;46.652;21.272;2023-03-21T20:30:54;23.03;39.04
71514;DHT22;59335;46.652;21.272;2023-03-21T20:34:03;23.02;38.97
71514;DHT22;59335;46.652;21.272;2023-03-21T20:37:10;23.05;38.85
71514;DHT22;59335;46.652;21.272;2023-03-21T20:40:18;23.03;38.75
71514;DHT22;59335;46.652;21.272;2023-03-21T20:43:22;23.03;38.74